sensor_id;sensor_type;location;lat;lon;timestamp;temperature;humidity
52769;DHT22;40471;44.534;18.644;2023-05-16T00:02:25;17.80;99.90
52769;DHT22;40471;44.534;18.644;2023-05-16T00:05:10;17.80;99.90
52769;DHT22;40471;44.534;18.644;2023-05-16T00:07:54;17.80;99.90
52769;DHT22;40471;44.534;18.644;2023-05-16T00:10:38;17.80;99.90
52769;DHT22;40471;44.534;18.644;2023-05-16T00:13:22;17.80;99.90
52769;DHT22;40471;44.534;18.644;2023-05-16T00:16:06;17.80;99.90
52769;DHT22;40471;44.534;18.644;2023-05-16T00:18:51;17.80;99.90
52769;DHT22;40471;44.534;18.644;2023-05-16T00:21:35;17.70;99.90
52769;DHT22;40471;44.534;18.644;2023-05-16T00:24:19;17.70;99.90
52769;DHT22;40471;44.534;18.644;2023-05-16T00:27:03;17.70;99.90
52769;DHT22;40471;44.534;18.644;2023-05-16T00:29:47;17.70;99.90
52769;DHT22;40471;44.534;18.644;2023-05-16T00:32:32;17.70;99.90
52769;DHT22;40471;44.534;18.644;2023-05-16T00:35:16;17.80;99.90
52769;DHT22;40471;44.534;18.644;2023-05-16T00:38:00;17.70;99.90
52769;DHT22;40471;44.534;18.644;2023-05-16T00:40:44;17.80;99.90
52769;DHT22;40471;44.534;18.644;2023-05-16T00:43:28;17.80;99.90
52769;DHT22;40471;44.534;18.644;2023-05-16T00:46:13;17.80;99.90
52769;DHT22;40471;44.534;18.644;2023-05-16T00:48:57;17.80;99.90
52769;DHT22;40471;44.534;18.644;2023-05-16T00:51:41;17.80;99.90
52769;DHT22;40471;44.534;18.644;2023-05-16T00:54:26;17.80;99.90
52769;DHT22;40471;44.534;18.644;2023-05-16T00:57:10;17.80;99.90
52769;DHT22;40471;44.534;18.644;2023-05-16T00:59:55;17.90;99.90
52769;DHT22;40471;44.534;18.644;2023-05-16T01:02:40;17.80;99.90
52769;DHT22;40471;44.534;18.644;2023-05-16T01:05:24;17.80;99.90
52769;DHT22;40471;44.534;18.644;2023-05-16T01:08:09;17.80;99.90
52769;DHT22;40471;44.534;18.644;2023-05-16T01:11:37;17.80;99.90
52769;DHT22;40471;44.534;18.644;2023-05-16T01:18:19;17.80;99.90
52769;DHT22;40471;44.534;18.644;2023-05-16T01:21:14;17.70;99.90
52769;DHT22;40471;44.534;18.644;2023-05-16T01:24:26;17.80;99.90
52769;DHT22;40471;44.534;18.644;2023-05-16T01:27:13;17.70;99.90
52769;DHT22;40471;44.534;18.644;2023-05-16T01:29:58;17.70;99.90
52769;DHT22;40471;44.534;18.644;2023-05-16T01:32:42;17.70;99.90
52769;DHT22;40471;44.534;18.644;2023-05-16T01:35:26;17.60;99.90
52769;DHT22;40471;44.534;18.644;2023-05-16T01:38:43;17.60;99.90
52769;DHT22;40471;44.534;18.644;2023-05-16T01:44:40;17.70;99.90
52769;DHT22;40471;44.534;18.644;2023-05-16T01:47:27;17.60;99.90
52769;DHT22;40471;44.534;18.644;2023-05-16T01:50:16;17.50;99.90
52769;DHT22;40471;44.534;18.644;2023-05-16T01:53:06;17.50;99.90
52769;DHT22;40471;44.534;18.644;2023-05-16T01:55:51;17.50;99.90
52769;DHT22;40471;44.534;18.644;2023-05-16T01:58:40;17.60;99.90
52769;DHT22;40471;44.534;18.644;2023-05-16T02:01:24;17.50;99.90
52769;DHT22;40471;44.534;18.644;2023-05-16T02:03:50;17.40;99.90
52769;DHT22;40471;44.534;18.644;2023-05-16T02:06:16;17.40;99.90
52769;DHT22;40471;44.534;18.644;2023-05-16T02:08:42;17.30;99.90
52769;DHT22;40471;44.534;18.644;2023-05-16T02:11:07;17.20;99.90
52769;DHT22;40471;44.534;18.644;2023-05-16T02:13:33;17.20;99.90
52769;DHT22;40471;44.534;18.644;2023-05-16T02:15:59;17.20;99.90
52769;DHT22;40471;44.534;18.644;2023-05-16T02:18:25;17.40;99.90
52769;DHT22;40471;44.534;18.644;2023-05-16T02:20:52;17.30;99.90
52769;DHT22;40471;44.534;18.644;2023-05-16T02:23:18;17.20;99.90
52769;DHT22;40471;44.534;18.644;2023-05-16T02:25:44;17.10;99.90
52769;DHT22;40471;44.534;18.644;2023-05-16T02:28:10;17.10;99.90
52769;DHT22;40471;44.534;18.644;2023-05-16T02:30:36;17.10;99.90
52769;DHT22;40471;44.534;18.644;2023-05-16T02:33:01;17.20;99.90
52769;DHT22;40471;44.534;18.644;2023-05-16T02:35:27;17.20;99.90
52769;DHT22;40471;44.534;18.644;2023-05-16T02:37:53;17.20;99.90
52769;DHT22;40471;44.534;18.644;2023-05-16T02:40:20;17.20;99.90
52769;DHT22;40471;44.534;18.644;2023-05-16T02:42:45;17.30;99.90
52769;DHT22;40471;44.534;18.644;2023-05-16T02:45:12;17.20;99.90
52769;DHT22;40471;44.534;18.644;2023-05-16T02:47:37;17.20;99.90
52769;DHT22;40471;44.534;18.644;2023-05-16T02:50:03;17.30;99.90
52769;DHT22;40471;44.534;18.644;2023-05-16T02:52:29;17.30;99.90
52769;DHT22;40471;44.534;18.644;2023-05-16T02:54:55;17.40;99.90
52769;DHT22;40471;44.534;18.644;2023-05-16T02:57:21;17.40;99.90
52769;DHT22;40471;44.534;18.644;2023-05-16T02:59:47;17.50;99.90
52769;DHT22;40471;44.534;18.644;2023-05-16T03:02:13;17.50;99.90
52769;DHT22;40471;44.534;18.644;2023-05-16T03:04:38;17.50;99.90
52769;DHT22;40471;44.534;18.644;2023-05-16T03:07:04;17.50;99.90
52769;DHT22;40471;44.534;18.644;2023-05-16T03:09:30;17.50;99.90
52769;DHT22;40471;44.534;18.644;2023-05-16T03:11:56;17.40;99.90
52769;DHT22;40471;44.534;18.644;2023-05-16T03:14:21;17.40;99.90
52769;DHT22;40471;44.534;18.644;2023-05-16T03:16:47;17.50;99.90
52769;DHT22;40471;44.534;18.644;2023-05-16T03:19:13;17.50;99.90
52769;DHT22;40471;44.534;18.644;2023-05-16T03:21:39;17.50;99.90
52769;DHT22;40471;44.534;18.644;2023-05-16T03:24:05;17.50;99.90
52769;DHT22;40471;44.534;18.644;2023-05-16T03:26:30;17.50;99.90
52769;DHT22;40471;44.534;18.644;2023-05-16T03:28:56;17.50;99.90
52769;DHT22;40471;44.534;18.644;2023-05-16T03:31:23;17.30;99.90
52769;DHT22;40471;44.534;18.644;2023-05-16T03:33:48;17.30;99.90
52769;DHT22;40471;44.534;18.644;2023-05-16T03:36:14;17.20;99.90
52769;DHT22;40471;44.534;18.644;2023-05-16T03:38:40;17.20;99.90
52769;DHT22;40471;44.534;18.644;2023-05-16T03:41:06;17.30;99.90
52769;DHT22;40471;44.534;18.644;2023-05-16T03:43:31;17.30;99.90
52769;DHT22;40471;44.534;18.644;2023-05-16T03:45:57;17.40;99.90
52769;DHT22;40471;44.534;18.644;2023-05-16T03:48:25;17.40;99.90
52769;DHT22;40471;44.534;18.644;2023-05-16T03:50:51;17.40;99.90
52769;DHT22;40471;44.534;18.644;2023-05-16T03:53:17;17.50;99.90
52769;DHT22;40471;44.534;18.644;2023-05-16T03:55:43;17.50;99.90
52769;DHT22;40471;44.534;18.644;2023-05-16T03:58:08;17.50;99.90
52769;DHT22;40471;44.534;18.644;2023-05-16T04:00:34;17.50;99.90
52769;DHT22;40471;44.534;18.644;2023-05-16T04:03:01;17.50;99.90
52769;DHT22;40471;44.534;18.644;2023-05-16T04:05:27;17.50;99.90
52769;DHT22;40471;44.534;18.644;2023-05-16T04:07:53;17.60;99.90
52769;DHT22;40471;44.534;18.644;2023-05-16T04:10:19;17.60;99.90
52769;DHT22;40471;44.534;18.644;2023-05-16T04:12:45;17.60;99.90
52769;DHT22;40471;44.534;18.644;2023-05-16T04:15:11;17.60;99.90
52769;DHT22;40471;44.534;18.644;2023-05-16T04:17:36;17.60;99.90
52769;DHT22;40471;44.534;18.644;2023-05-16T04:20:02;17.70;99.90
52769;DHT22;40471;44.534;18.644;2023-05-16T04:22:29;17.70;99.90
52769;DHT22;40471;44.534;18.644;2023-05-16T04:24:55;17.70;99.90
52769;DHT22;40471;44.534;18.644;2023-05-16T04:27:21;17.70;99.90
52769;DHT22;40471;44.534;18.644;2023-05-16T04:29:48;17.80;99.90
52769;DHT22;40471;44.534;18.644;2023-05-16T04:32:13;17.80;99.90
52769;DHT22;40471;44.534;18.644;2023-05-16T04:34:39;17.80;99.90
52769;DHT22;40471;44.534;18.644;2023-05-16T04:37:06;17.80;99.90
52769;DHT22;40471;44.534;18.644;2023-05-16T04:39:34;17.80;99.90
52769;DHT22;40471;44.534;18.644;2023-05-16T04:42:00;17.80;99.90
52769;DHT22;40471;44.534;18.644;2023-05-16T04:44:27;17.90;99.90
52769;DHT22;40471;44.534;18.644;2023-05-16T04:46:52;17.90;99.90
52769;DHT22;40471;44.534;18.644;2023-05-16T04:49:19;18.00;99.90
52769;DHT22;40471;44.534;18.644;2023-05-16T04:51:49;18.00;99.90
52769;DHT22;40471;44.534;18.644;2023-05-16T04:54:15;18.00;99.90
52769;DHT22;40471;44.534;18.644;2023-05-16T04:56:40;18.00;99.90
52769;DHT22;40471;44.534;18.644;2023-05-16T04:59:06;18.00;99.90
52769;DHT22;40471;44.534;18.644;2023-05-16T05:01:32;18.10;99.90
52769;DHT22;40471;44.534;18.644;2023-05-16T05:03:58;18.10;99.90
52769;DHT22;40471;44.534;18.644;2023-05-16T05:06:23;18.10;99.90
52769;DHT22;40471;44.534;18.644;2023-05-16T05:08:49;18.10;99.90
52769;DHT22;40471;44.534;18.644;2023-05-16T05:11:15;18.20;99.90
52769;DHT22;40471;44.534;18.644;2023-05-16T05:13:41;18.20;99.90
52769;DHT22;40471;44.534;18.644;2023-05-16T05:16:07;18.30;99.90
52769;DHT22;40471;44.534;18.644;2023-05-16T05:18:33;18.30;99.90
52769;DHT22;40471;44.534;18.644;2023-05-16T05:20:59;18.30;99.90
52769;DHT22;40471;44.534;18.644;2023-05-16T05:23:24;18.30;99.90
52769;DHT22;40471;44.534;18.644;2023-05-16T05:25:50;18.30;99.90
52769;DHT22;40471;44.534;18.644;2023-05-16T05:28:16;18.30;99.90
52769;DHT22;40471;44.534;18.644;2023-05-16T05:30:42;18.20;99.90
52769;DHT22;40471;44.534;18.644;2023-05-16T05:33:10;18.10;99.90
52769;DHT22;40471;44.534;18.644;2023-05-16T05:35:36;18.10;99.90
52769;DHT22;40471;44.534;18.644;2023-05-16T05:38:02;18.10;99.90
52769;DHT22;40471;44.534;18.644;2023-05-16T05:40:28;18.10;99.90
52769;DHT22;40471;44.534;18.644;2023-05-16T05:42:54;18.10;99.90
52769;DHT22;40471;44.534;18.644;2023-05-16T05:45:19;18.20;99.90
52769;DHT22;40471;44.534;18.644;2023-05-16T05:47:45;18.20;99.90
52769;DHT22;40471;44.534;18.644;2023-05-16T05:50:11;18.30;99.90
52769;DHT22;40471;44.534;18.644;2023-05-16T05:52:37;18.30;99.90
52769;DHT22;40471;44.534;18.644;2023-05-16T05:55:03;18.40;99.90
52769;DHT22;40471;44.534;18.644;2023-05-16T05:57:29;18.30;99.90
52769;DHT22;40471;44.534;18.644;2023-05-16T05:59:55;18.30;99.90
52769;DHT22;40471;44.534;18.644;2023-05-16T06:02:21;18.30;99.90
52769;DHT22;40471;44.534;18.644;2023-05-16T06:04:46;18.30;99.90
52769;DHT22;40471;44.534;18.644;2023-05-16T06:07:12;18.20;99.90
52769;DHT22;40471;44.534;18.644;2023-05-16T06:09:40;18.00;99.90
52769;DHT22;40471;44.534;18.644;2023-05-16T06:12:07;17.50;99.90
52769;DHT22;40471;44.534;18.644;2023-05-16T06:14:33;17.00;99.90
52769;DHT22;40471;44.534;18.644;2023-05-16T06:16:59;16.80;99.90
52769;DHT22;40471;44.534;18.644;2023-05-16T06:19:25;16.60;99.90
52769;DHT22;40471;44.534;18.644;2023-05-16T06:21:51;16.60;99.90
52769;DHT22;40471;44.534;18.644;2023-05-16T06:24:16;16.70;99.90
52769;DHT22;40471;44.534;18.644;2023-05-16T06:26:42;16.80;99.90
52769;DHT22;40471;44.534;18.644;2023-05-16T06:29:10;16.90;99.90
52769;DHT22;40471;44.534;18.644;2023-05-16T06:31:36;16.80;99.90
52769;DHT22;40471;44.534;18.644;2023-05-16T06:34:02;16.80;99.90
52769;DHT22;40471;44.534;18.644;2023-05-16T06:36:28;16.90;99.90
52769;DHT22;40471;44.534;18.644;2023-05-16T06:38:54;17.10;99.90
52769;DHT22;40471;44.534;18.644;2023-05-16T06:41:20;17.20;99.90
52769;DHT22;40471;44.534;18.644;2023-05-16T06:43:46;17.30;99.90
52769;DHT22;40471;44.534;18.644;2023-05-16T06:46:11;17.50;99.90
52769;DHT22;40471;44.534;18.644;2023-05-16T06:48:37;17.60;99.90
52769;DHT22;40471;44.534;18.644;2023-05-16T06:51:03;17.70;99.90
52769;DHT22;40471;44.534;18.644;2023-05-16T06:53:29;17.70;99.90
52769;DHT22;40471;44.534;18.644;2023-05-16T06:55:55;17.90;99.90
52769;DHT22;40471;44.534;18.644;2023-05-16T06:58:21;18.00;99.90
52769;DHT22;40471;44.534;18.644;2023-05-16T07:00:48;18.10;99.90
52769;DHT22;40471;44.534;18.644;2023-05-16T07:03:14;18.30;99.90
52769;DHT22;40471;44.534;18.644;2023-05-16T07:05:40;18.50;99.90
52769;DHT22;40471;44.534;18.644;2023-05-16T07:08:08;18.50;99.90
52769;DHT22;40471;44.534;18.644;2023-05-16T07:10:34;18.30;99.90
52769;DHT22;40471;44.534;18.644;2023-05-16T07:13:01;18.20;99.90
52769;DHT22;40471;44.534;18.644;2023-05-16T07:15:27;18.20;99.90
52769;DHT22;40471;44.534;18.644;2023-05-16T07:17:52;18.30;99.90
52769;DHT22;40471;44.534;18.644;2023-05-16T07:20:18;18.40;99.90
52769;DHT22;40471;44.534;18.644;2023-05-16T07:22:44;19.00;99.90
52769;DHT22;40471;44.534;18.644;2023-05-16T07:25:10;20.00;99.90
52769;DHT22;40471;44.534;18.644;2023-05-16T07:27:38;21.80;99.90
52769;DHT22;40471;44.534;18.644;2023-05-16T07:30:07;24.60;99.90
52769;DHT22;40471;44.534;18.644;2023-05-16T07:32:34;26.00;99.90
52769;DHT22;40471;44.534;18.644;2023-05-16T07:34:59;28.00;99.90
52769;DHT22;40471;44.534;18.644;2023-05-16T07:37:25;29.80;93.00
52769;DHT22;40471;44.534;18.644;2023-05-16T07:39:51;30.60;94.40
52769;DHT22;40471;44.534;18.644;2023-05-16T07:42:16;31.20;79.60
52769;DHT22;40471;44.534;18.644;2023-05-16T07:44:42;31.00;78.80
52769;DHT22;40471;44.534;18.644;2023-05-16T07:47:08;29.70;80.40
52769;DHT22;40471;44.534;18.644;2023-05-16T07:49:33;28.90;90.80
52769;DHT22;40471;44.534;18.644;2023-05-16T07:51:59;28.00;98.90
52769;DHT22;40471;44.534;18.644;2023-05-16T07:54:25;27.00;99.90
52769;DHT22;40471;44.534;18.644;2023-05-16T07:56:50;26.20;99.90
52769;DHT22;40471;44.534;18.644;2023-05-16T07:59:16;25.40;99.90
52769;DHT22;40471;44.534;18.644;2023-05-16T08:01:42;24.90;99.90
52769;DHT22;40471;44.534;18.644;2023-05-16T08:04:07;24.50;99.90
52769;DHT22;40471;44.534;18.644;2023-05-16T08:06:33;24.30;99.90
52769;DHT22;40471;44.534;18.644;2023-05-16T08:08:59;24.30;99.90
52769;DHT22;40471;44.534;18.644;2023-05-16T08:11:25;24.30;99.90
52769;DHT22;40471;44.534;18.644;2023-05-16T08:13:51;24.20;99.90
52769;DHT22;40471;44.534;18.644;2023-05-16T08:16:17;24.10;99.90
52769;DHT22;40471;44.534;18.644;2023-05-16T08:18:43;24.20;99.90
52769;DHT22;40471;44.534;18.644;2023-05-16T08:21:08;24.30;99.90
52769;DHT22;40471;44.534;18.644;2023-05-16T08:23:34;24.80;99.90
52769;DHT22;40471;44.534;18.644;2023-05-16T08:26:01;25.60;99.90
52769;DHT22;40471;44.534;18.644;2023-05-16T08:28:28;25.70;99.90
52769;DHT22;40471;44.534;18.644;2023-05-16T08:30:53;25.50;99.90
52769;DHT22;40471;44.534;18.644;2023-05-16T08:33:19;25.40;99.90
52769;DHT22;40471;44.534;18.644;2023-05-16T08:35:45;25.10;99.90
52769;DHT22;40471;44.534;18.644;2023-05-16T08:38:11;24.80;99.90
52769;DHT22;40471;44.534;18.644;2023-05-16T08:40:37;24.50;99.90
52769;DHT22;40471;44.534;18.644;2023-05-16T08:43:04;24.50;99.90
52769;DHT22;40471;44.534;18.644;2023-05-16T08:45:30;24.50;99.90
52769;DHT22;40471;44.534;18.644;2023-05-16T08:47:56;24.40;99.90
52769;DHT22;40471;44.534;18.644;2023-05-16T08:50:25;23.90;99.90
52769;DHT22;40471;44.534;18.644;2023-05-16T08:52:53;23.90;99.90
52769;DHT22;40471;44.534;18.644;2023-05-16T08:55:19;24.60;99.90
52769;DHT22;40471;44.534;18.644;2023-05-16T08:57:48;25.90;99.90
52769;DHT22;40471;44.534;18.644;2023-05-16T09:00:16;27.30;99.90
52769;DHT22;40471;44.534;18.644;2023-05-16T09:02:44;27.90;99.90
52769;DHT22;40471;44.534;18.644;2023-05-16T09:05:11;27.70;96.70
52769;DHT22;40471;44.534;18.644;2023-05-16T09:07:38;28.60;96.50
52769;DHT22;40471;44.534;18.644;2023-05-16T09:10:06;29.10;92.70
52769;DHT22;40471;44.534;18.644;2023-05-16T09:12:33;29.10;89.30
52769;DHT22;40471;44.534;18.644;2023-05-16T09:15:04;29.70;90.60
52769;DHT22;40471;44.534;18.644;2023-05-16T09:17:37;29.90;83.30
52769;DHT22;40471;44.534;18.644;2023-05-16T09:20:15;29.70;81.80
52769;DHT22;40471;44.534;18.644;2023-05-16T09:22:50;29.10;83.90
52769;DHT22;40471;44.534;18.644;2023-05-16T09:25:17;28.70;84.20
52769;DHT22;40471;44.534;18.644;2023-05-16T09:27:45;28.00;82.40
52769;DHT22;40471;44.534;18.644;2023-05-16T09:30:14;27.50;85.60
52769;DHT22;40471;44.534;18.644;2023-05-16T09:32:44;26.90;86.40
52769;DHT22;40471;44.534;18.644;2023-05-16T09:35:14;26.30;91.50
52769;DHT22;40471;44.534;18.644;2023-05-16T09:37:50;26.10;93.20
52769;DHT22;40471;44.534;18.644;2023-05-16T09:40:20;25.80;93.60
52769;DHT22;40471;44.534;18.644;2023-05-16T09:42:47;25.50;98.90
52769;DHT22;40471;44.534;18.644;2023-05-16T09:45:18;25.30;99.90
52769;DHT22;40471;44.534;18.644;2023-05-16T09:47:44;25.20;99.90
52769;DHT22;40471;44.534;18.644;2023-05-16T09:50:14;25.20;99.90
52769;DHT22;40471;44.534;18.644;2023-05-16T09:52:43;25.20;99.90
52769;DHT22;40471;44.534;18.644;2023-05-16T09:55:09;25.40;99.90
52769;DHT22;40471;44.534;18.644;2023-05-16T09:57:38;25.80;99.90
52769;DHT22;40471;44.534;18.644;2023-05-16T10:00:10;25.90;96.50
52769;DHT22;40471;44.534;18.644;2023-05-16T10:02:37;25.80;99.60
52769;DHT22;40471;44.534;18.644;2023-05-16T10:05:05;25.90;99.10
52769;DHT22;40471;44.534;18.644;2023-05-16T10:07:31;25.90;99.90
52769;DHT22;40471;44.534;18.644;2023-05-16T10:10:05;25.90;97.50
52769;DHT22;40471;44.534;18.644;2023-05-16T10:12:32;25.70;99.30
52769;DHT22;40471;44.534;18.644;2023-05-16T10:15:00;25.70;99.90
52769;DHT22;40471;44.534;18.644;2023-05-16T10:17:29;26.00;99.70
52769;DHT22;40471;44.534;18.644;2023-05-16T10:19:57;26.20;99.90
52769;DHT22;40471;44.534;18.644;2023-05-16T10:22:25;26.30;98.50
52769;DHT22;40471;44.534;18.644;2023-05-16T10:24:59;26.50;97.60
52769;DHT22;40471;44.534;18.644;2023-05-16T10:27:29;26.80;94.40
52769;DHT22;40471;44.534;18.644;2023-05-16T10:29:55;27.10;96.20
52769;DHT22;40471;44.534;18.644;2023-05-16T10:32:23;27.30;94.30
52769;DHT22;40471;44.534;18.644;2023-05-16T10:34:49;27.30;90.90
52769;DHT22;40471;44.534;18.644;2023-05-16T10:37:15;27.20;90.50
52769;DHT22;40471;44.534;18.644;2023-05-16T10:39:41;26.80;90.40
52769;DHT22;40471;44.534;18.644;2023-05-16T10:42:07;26.50;91.60
52769;DHT22;40471;44.534;18.644;2023-05-16T10:44:33;26.30;93.60
52769;DHT22;40471;44.534;18.644;2023-05-16T10:50:42;26.20;93.40
52769;DHT22;40471;44.534;18.644;2023-05-16T10:53:32;25.70;95.90
52769;DHT22;40471;44.534;18.644;2023-05-16T11:01:27;24.90;98.60
52769;DHT22;40471;44.534;18.644;2023-05-16T11:06:29;24.90;99.90
52769;DHT22;40471;44.534;18.644;2023-05-16T11:17:21;25.50;99.90
52769;DHT22;40471;44.534;18.644;2023-05-16T11:19:55;25.80;99.90
52769;DHT22;40471;44.534;18.644;2023-05-16T11:22:31;26.00;99.90
52769;DHT22;40471;44.534;18.644;2023-05-16T11:25:00;25.80;99.90
52769;DHT22;40471;44.534;18.644;2023-05-16T11:32:33;26.60;99.10
52769;DHT22;40471;44.534;18.644;2023-05-16T11:34:59;26.90;99.10
52769;DHT22;40471;44.534;18.644;2023-05-16T11:37:26;27.60;93.70
52769;DHT22;40471;44.534;18.644;2023-05-16T11:39:52;27.90;91.30
52769;DHT22;40471;44.534;18.644;2023-05-16T11:42:19;28.10;90.20
52769;DHT22;40471;44.534;18.644;2023-05-16T11:44:45;27.90;89.10
52769;DHT22;40471;44.534;18.644;2023-05-16T11:47:11;27.90;89.70
52769;DHT22;40471;44.534;18.644;2023-05-16T11:49:37;27.90;88.60
52769;DHT22;40471;44.534;18.644;2023-05-16T11:52:03;27.90;87.50
52769;DHT22;40471;44.534;18.644;2023-05-16T11:54:30;28.10;88.00
52769;DHT22;40471;44.534;18.644;2023-05-16T11:56:56;27.80;85.80
52769;DHT22;40471;44.534;18.644;2023-05-16T11:59:23;27.50;87.20
52769;DHT22;40471;44.534;18.644;2023-05-16T12:01:49;27.00;85.80
52769;DHT22;40471;44.534;18.644;2023-05-16T12:04:15;26.90;89.60
52769;DHT22;40471;44.534;18.644;2023-05-16T12:06:42;26.70;90.30
52769;DHT22;40471;44.534;18.644;2023-05-16T12:09:13;26.80;90.90
52769;DHT22;40471;44.534;18.644;2023-05-16T12:11:41;26.90;90.40
52769;DHT22;40471;44.534;18.644;2023-05-16T12:14:09;27.30;90.50
52769;DHT22;40471;44.534;18.644;2023-05-16T12:16:37;27.50;86.20
52769;DHT22;40471;44.534;18.644;2023-05-16T12:19:04;27.60;86.90
52769;DHT22;40471;44.534;18.644;2023-05-16T12:21:31;27.70;84.70
52769;DHT22;40471;44.534;18.644;2023-05-16T12:23:58;27.60;82.90
52769;DHT22;40471;44.534;18.644;2023-05-16T12:26:31;27.40;86.90
52769;DHT22;40471;44.534;18.644;2023-05-16T12:28:58;27.40;84.30
52769;DHT22;40471;44.534;18.644;2023-05-16T12:31:28;26.80;84.30
52769;DHT22;40471;44.534;18.644;2023-05-16T12:33:55;26.30;87.30
52769;DHT22;40471;44.534;18.644;2023-05-16T12:36:33;26.20;90.70
52769;DHT22;40471;44.534;18.644;2023-05-16T12:39:02;26.20;88.10
52769;DHT22;40471;44.534;18.644;2023-05-16T12:41:29;26.60;89.60
52769;DHT22;40471;44.534;18.644;2023-05-16T12:44:15;26.80;88.60
52769;DHT22;40471;44.534;18.644;2023-05-16T12:46:49;27.00;85.80
52769;DHT22;40471;44.534;18.644;2023-05-16T12:49:19;27.10;86.50
52769;DHT22;40471;44.534;18.644;2023-05-16T12:51:53;27.20;84.70
52769;DHT22;40471;44.534;18.644;2023-05-16T12:54:19;27.20;86.80
52769;DHT22;40471;44.534;18.644;2023-05-16T12:56:47;27.40;85.40
52769;DHT22;40471;44.534;18.644;2023-05-16T12:59:13;27.50;83.80
52769;DHT22;40471;44.534;18.644;2023-05-16T13:01:39;27.80;83.90
52769;DHT22;40471;44.534;18.644;2023-05-16T13:04:06;27.80;82.50
52769;DHT22;40471;44.534;18.644;2023-05-16T13:06:32;27.60;83.90
52769;DHT22;40471;44.534;18.644;2023-05-16T13:08:58;27.80;83.10
52769;DHT22;40471;44.534;18.644;2023-05-16T13:11:24;27.90;83.00
52769;DHT22;40471;44.534;18.644;2023-05-16T13:13:51;27.80;82.50
52769;DHT22;40471;44.534;18.644;2023-05-16T13:16:17;27.60;83.70
52769;DHT22;40471;44.534;18.644;2023-05-16T13:18:43;27.70;84.60
52769;DHT22;40471;44.534;18.644;2023-05-16T13:21:09;27.60;84.00
52769;DHT22;40471;44.534;18.644;2023-05-16T13:23:34;27.30;84.60
52769;DHT22;40471;44.534;18.644;2023-05-16T13:26:00;27.20;86.40
52769;DHT22;40471;44.534;18.644;2023-05-16T13:28:26;27.10;86.70
52769;DHT22;40471;44.534;18.644;2023-05-16T13:30:52;27.10;87.30
52769;DHT22;40471;44.534;18.644;2023-05-16T13:33:18;27.40;87.50
52769;DHT22;40471;44.534;18.644;2023-05-16T13:35:44;27.40;87.10
52769;DHT22;40471;44.534;18.644;2023-05-16T13:38:10;27.40;85.10
52769;DHT22;40471;44.534;18.644;2023-05-16T13:40:35;27.10;87.00
52769;DHT22;40471;44.534;18.644;2023-05-16T13:43:01;26.90;90.00
52769;DHT22;40471;44.534;18.644;2023-05-16T13:45:27;26.10;75.40
52769;DHT22;40471;44.534;18.644;2023-05-16T13:47:53;25.40;76.60
52769;DHT22;40471;44.534;18.644;2023-05-16T13:50:19;24.80;80.40
52769;DHT22;40471;44.534;18.644;2023-05-16T13:52:45;22.30;99.90
52769;DHT22;40471;44.534;18.644;2023-05-16T13:55:12;20.10;99.90
52769;DHT22;40471;44.534;18.644;2023-05-16T13:57:38;18.90;99.90
52769;DHT22;40471;44.534;18.644;2023-05-16T14:00:04;18.40;99.90
52769;DHT22;40471;44.534;18.644;2023-05-16T14:02:38;17.80;99.90
52769;DHT22;40471;44.534;18.644;2023-05-16T14:05:05;17.50;99.90
52769;DHT22;40471;44.534;18.644;2023-05-16T14:07:31;17.50;99.90
52769;DHT22;40471;44.534;18.644;2023-05-16T14:09:58;17.60;99.90
52769;DHT22;40471;44.534;18.644;2023-05-16T14:12:24;17.70;99.90
52769;DHT22;40471;44.534;18.644;2023-05-16T14:14:50;17.90;99.90
52769;DHT22;40471;44.534;18.644;2023-05-16T14:17:16;18.10;99.90
52769;DHT22;40471;44.534;18.644;2023-05-16T14:19:41;18.20;99.90
52769;DHT22;40471;44.534;18.644;2023-05-16T14:22:07;18.70;99.90
52769;DHT22;40471;44.534;18.644;2023-05-16T14:24:33;19.10;99.90
52769;DHT22;40471;44.534;18.644;2023-05-16T14:26:59;19.30;99.90
52769;DHT22;40471;44.534;18.644;2023-05-16T14:29:25;19.30;99.90
52769;DHT22;40471;44.534;18.644;2023-05-16T14:31:51;19.50;99.90
52769;DHT22;40471;44.534;18.644;2023-05-16T14:34:17;19.60;99.90
52769;DHT22;40471;44.534;18.644;2023-05-16T14:36:43;19.90;99.90
52769;DHT22;40471;44.534;18.644;2023-05-16T14:39:09;20.00;99.90
52769;DHT22;40471;44.534;18.644;2023-05-16T14:41:35;20.20;99.90
52769;DHT22;40471;44.534;18.644;2023-05-16T14:44:00;20.20;99.90
52769;DHT22;40471;44.534;18.644;2023-05-16T14:46:26;20.10;99.90
52769;DHT22;40471;44.534;18.644;2023-05-16T14:48:53;20.20;99.90
52769;DHT22;40471;44.534;18.644;2023-05-16T14:51:19;20.20;99.90
52769;DHT22;40471;44.534;18.644;2023-05-16T14:53:44;20.50;99.90
52769;DHT22;40471;44.534;18.644;2023-05-16T14:56:10;20.60;99.90
52769;DHT22;40471;44.534;18.644;2023-05-16T14:58:37;20.80;99.90
52769;DHT22;40471;44.534;18.644;2023-05-16T15:01:02;20.20;99.90
52769;DHT22;40471;44.534;18.644;2023-05-16T15:03:28;20.00;99.90
52769;DHT22;40471;44.534;18.644;2023-05-16T15:05:56;20.10;99.90
52769;DHT22;40471;44.534;18.644;2023-05-16T15:08:22;19.90;99.90
52769;DHT22;40471;44.534;18.644;2023-05-16T15:10:47;19.70;99.90
52769;DHT22;40471;44.534;18.644;2023-05-16T15:13:13;19.90;99.90
52769;DHT22;40471;44.534;18.644;2023-05-16T15:15:39;19.90;99.90
52769;DHT22;40471;44.534;18.644;2023-05-16T15:18:13;20.10;99.90
52769;DHT22;40471;44.534;18.644;2023-05-16T15:20:39;20.30;99.90
52769;DHT22;40471;44.534;18.644;2023-05-16T15:23:04;20.60;99.90
52769;DHT22;40471;44.534;18.644;2023-05-16T15:25:30;21.00;99.90
52769;DHT22;40471;44.534;18.644;2023-05-16T15:27:56;21.40;99.90
52769;DHT22;40471;44.534;18.644;2023-05-16T15:30:22;21.30;99.90
52769;DHT22;40471;44.534;18.644;2023-05-16T15:32:47;21.30;99.90
52769;DHT22;40471;44.534;18.644;2023-05-16T15:35:13;21.30;99.90
52769;DHT22;40471;44.534;18.644;2023-05-16T15:37:39;21.30;99.90
52769;DHT22;40471;44.534;18.644;2023-05-16T15:40:05;21.30;99.90
52769;DHT22;40471;44.534;18.644;2023-05-16T15:42:32;21.30;99.90
52769;DHT22;40471;44.534;18.644;2023-05-16T15:44:58;21.40;99.90
52769;DHT22;40471;44.534;18.644;2023-05-16T15:47:24;21.60;99.90
52769;DHT22;40471;44.534;18.644;2023-05-16T15:49:50;21.50;99.90
52769;DHT22;40471;44.534;18.644;2023-05-16T15:52:16;21.80;99.90
52769;DHT22;40471;44.534;18.644;2023-05-16T15:54:42;21.70;99.90
52769;DHT22;40471;44.534;18.644;2023-05-16T15:57:07;21.70;99.90
52769;DHT22;40471;44.534;18.644;2023-05-16T15:59:33;22.00;99.90